Time;durP1;ratioP1;P1;durP2;ratioP2;P2;SDS_P1;SDS_P2;PMS_P1;PMS_P2;Temp;Humidity;BMP_temperature;BMP_pressure;BME280_temperature;BME280_humidity;BME280_pressure;Samples;Min_cycle;Max_cycle;Signal;HPM_P1;HPM_P2
2022/11/06 00:01:26;;;;;;;7.77;3.20;;;;;;;;;;5061752;28;20204;-82
2022/11/06 00:03:53;;;;;;;8.83;3.20;;;;;;;;;;5069103;28;20241;-83
2022/11/06 00:09:07;;;;;;;14.43;4.23;;;;;;;;;;5075724;28;20193;-83
2022/11/06 00:11:35;;;;;;;7.60;3.30;;;;;;;;;;5082010;28;20204;-83
2022/11/06 00:14:03;;;;;;;10.73;3.10;;;;;;;;;;5058800;28;20227;-82
2022/11/06 00:16:30;;;;;;;9.00;3.43;;;;;;;;;;5072335;28;20199;-83
2022/11/06 00:19:00;;;;;;;9.07;3.07;;;;;;;;;;5068990;28;20277;-83
2022/11/06 00:21:28;;;;;;;10.10;3.37;;;;;;;;;;5063738;28;20208;-82
2022/11/06 00:23:56;;;;;;;8.17;3.00;;;;;;;;;;5063947;28;20628;-82
2022/11/06 00:26:25;;;;;;;10.67;3.47;;;;;;;;;;5073664;28;20226;-82
2022/11/06 00:28:54;;;;;;;10.53;2.97;;;;;;;;;;5057200;28;20227;-83
2022/11/06 00:31:22;;;;;;;10.77;3.50;;;;;;;;;;5067515;28;20195;-83
2022/11/06 00:33:50;;;;;;;10.73;3.03;;;;;;;;;;5063809;28;20199;-83
2022/11/06 00:36:18;;;;;;;13.00;3.27;;;;;;;;;;5073279;28;20234;-83
2022/11/06 00:38:45;;;;;;;8.60;3.30;;;;;;;;;;5069235;28;20251;-83
2022/11/06 00:41:14;;;;;;;9.43;3.17;;;;;;;;;;5071521;28;20255;-83
2022/11/06 00:43:41;;;;;;;9.37;3.00;;;;;;;;;;5063861;28;20278;-83
2022/11/06 00:46:11;;;;;;;11.90;2.90;;;;;;;;;;5057726;28;20300;-83
2022/11/06 00:48:38;;;;;;;10.03;3.53;;;;;;;;;;5059845;28;20206;-82
2022/11/06 00:51:06;;;;;;;8.80;3.07;;;;;;;;;;5069067;28;20731;-83
2022/11/06 00:53:34;;;;;;;7.47;3.03;;;;;;;;;;5073523;28;20273;-83
2022/11/06 00:56:05;;;;;;;7.83;2.87;;;;;;;;;;5069307;28;20246;-82
2022/11/06 00:58:32;;;;;;;10.47;3.33;;;;;;;;;;5053184;28;20271;-83
2022/11/06 01:01:06;;;;;;;9.03;2.93;;;;;;;;;;5053231;28;20227;-83
2022/11/06 01:03:40;;;;;;;11.43;3.20;;;;;;;;;;5069290;28;20363;-84
2022/11/06 01:06:08;;;;;;;7.87;2.93;;;;;;;;;;5084030;28;20639;-83
2022/11/06 01:08:36;;;;;;;11.10;2.73;;;;;;;;;;5065841;28;20253;-83
2022/11/06 01:11:12;;;;;;;8.97;3.10;;;;;;;;;;5068166;28;20253;-83
2022/11/06 01:13:39;;;;;;;9.50;2.90;;;;;;;;;;5072351;28;20198;-83
2022/11/06 01:16:07;;;;;;;9.97;2.73;;;;;;;;;;5072738;28;20230;-82
2022/11/06 01:18:35;;;;;;;9.20;2.83;;;;;;;;;;5054203;28;20231;-83
2022/11/06 01:21:04;;;;;;;7.43;2.60;;;;;;;;;;5070170;28;20259;-82
2022/11/06 01:23:31;;;;;;;7.50;3.10;;;;;;;;;;5071584;28;20554;-83
2022/11/06 01:25:59;;;;;;;11.20;3.50;;;;;;;;;;5061857;28;20231;-83
2022/11/06 01:28:26;;;;;;;9.30;2.90;;;;;;;;;;5053346;28;20239;-82
2022/11/06 01:30:56;;;;;;;8.20;2.40;;;;;;;;;;5061902;28;20804;-82
2022/11/06 01:33:24;;;;;;;8.77;2.70;;;;;;;;;;5066343;28;20206;-82
2022/11/06 01:35:52;;;;;;;8.47;2.53;;;;;;;;;;5088341;28;20194;-82
2022/11/06 01:38:19;;;;;;;7.30;3.07;;;;;;;;;;5072655;28;20203;-82
2022/11/06 01:40:47;;;;;;;10.47;2.87;;;;;;;;;;5063261;28;20309;-82
2022/11/06 01:43:16;;;;;;;9.53;2.60;;;;;;;;;;5054298;28;20286;-82
2022/11/06 01:45:44;;;;;;;8.87;2.60;;;;;;;;;;5052317;28;20235;-82
2022/11/06 01:48:13;;;;;;;12.47;2.87;;;;;;;;;;5052706;28;20195;-83
2022/11/06 01:50:41;;;;;;;7.37;2.73;;;;;;;;;;5082994;28;20260;-83
2022/11/06 01:53:09;;;;;;;8.90;2.23;;;;;;;;;;5069775;28;20282;-83
2022/11/06 01:55:45;;;;;;;10.47;2.37;;;;;;;;;;5068603;28;20752;-82
2022/11/06 01:58:13;;;;;;;10.07;2.47;;;;;;;;;;5081573;28;20249;-82
2022/11/06 02:00:41;;;;;;;8.37;2.53;;;;;;;;;;5057209;28;20269;-82
2022/11/06 02:03:08;;;;;;;10.60;2.37;;;;;;;;;;5068310;28;20194;-82
2022/11/06 02:05:36;;;;;;;6.23;2.40;;;;;;;;;;5075663;28;20281;-82
2022/11/06 02:08:04;;;;;;;8.07;2.53;;;;;;;;;;5072242;28;20606;-83
2022/11/06 02:10:33;;;;;;;10.03;2.50;;;;;;;;;;5072076;28;20233;-83
2022/11/06 02:13:16;;;;;;;12.93;2.93;;;;;;;;;;5080936;28;20230;-83
2022/11/06 02:15:47;;;;;;;10.67;2.57;;;;;;;;;;5079782;28;20199;-83
2022/11/06 02:18:18;;;;;;;13.37;2.63;;;;;;;;;;5052290;28;20283;-83
2022/11/06 02:20:51;;;;;;;6.90;2.40;;;;;;;;;;5055274;28;20225;-82
2022/11/06 02:23:33;;;;;;;9.07;2.60;;;;;;;;;;5071596;28;20666;-83
2022/11/06 02:26:14;;;;;;;8.07;2.63;;;;;;;;;;5066397;28;20239;-82
2022/11/06 02:28:48;;;;;;;11.40;2.40;;;;;;;;;;5057707;28;20268;-83
2022/11/06 02:31:18;;;;;;;11.40;2.90;;;;;;;;;;5072136;28;20210;-83
2022/11/06 02:33:48;;;;;;;9.67;2.80;;;;;;;;;;5072332;28;20252;-82
2022/11/06 02:36:17;;;;;;;9.93;2.73;;;;;;;;;;5067735;28;20241;-83
2022/11/06 02:38:45;;;;;;;8.43;2.63;;;;;;;;;;5051768;28;20575;-82
2022/11/06 02:41:14;;;;;;;9.77;2.27;;;;;;;;;;5051238;28;20239;-82
2022/11/06 02:43:45;;;;;;;10.50;2.50;;;;;;;;;;5058233;28;20234;-83
2022/11/06 02:46:15;;;;;;;10.07;2.30;;;;;;;;;;5073200;28;20231;-83
2022/11/06 02:48:44;;;;;;;8.37;2.60;;;;;;;;;;5090370;28;20234;-83
2022/11/06 02:51:13;;;;;;;10.00;2.70;;;;;;;;;;5092336;28;20199;-84
2022/11/06 02:53:42;;;;;;;7.63;2.60;;;;;;;;;;5079550;28;20223;-83
2022/11/06 02:56:12;;;;;;;9.53;2.43;;;;;;;;;;5055435;28;20231;-83
2022/11/06 02:58:41;;;;;;;10.43;2.70;;;;;;;;;;5079463;28;20234;-83
2022/11/06 03:01:19;;;;;;;8.07;2.80;;;;;;;;;;5075273;28;20309;-84
2022/11/06 03:03:50;;;;;;;14.47;3.27;;;;;;;;;;5075287;28;20294;-83
2022/11/06 03:06:21;;;;;;;11.13;3.10;;;;;;;;;;5075238;28;20195;-83
2022/11/06 03:08:49;;;;;;;10.03;3.10;;;;;;;;;;5071210;28;20200;-84
2022/11/06 03:11:19;;;;;;;10.53;3.00;;;;;;;;;;5071019;28;20227;-82
2022/11/06 03:13:49;;;;;;;10.10;3.13;;;;;;;;;;5073859;28;20234;-83
2022/11/06 03:16:24;;;;;;;9.67;3.43;;;;;;;;;;5069706;28;20226;-84
2022/11/06 03:18:55;;;;;;;10.83;3.80;;;;;;;;;;5055481;28;20261;-83
2022/11/06 03:21:25;;;;;;;11.70;3.60;;;;;;;;;;5055109;28;20239;-83
2022/11/06 03:23:55;;;;;;;10.67;4.03;;;;;;;;;;5067045;28;20252;-83
2022/11/06 03:26:25;;;;;;;12.83;4.13;;;;;;;;;;5075184;28;20286;-83
2022/11/06 03:28:53;;;;;;;11.13;3.93;;;;;;;;;;5060452;28;20215;-83
2022/11/06 03:31:26;;;;;;;11.67;4.37;;;;;;;;;;5075252;28;20278;-82
2022/11/06 03:33:56;;;;;;;10.83;4.20;;;;;;;;;;5074652;28;20231;-83
2022/11/06 03:36:25;;;;;;;10.97;4.23;;;;;;;;;;5075198;28;20294;-82
2022/11/06 03:38:53;;;;;;;7.83;4.07;;;;;;;;;;5074565;28;20284;-82
2022/11/06 03:41:23;;;;;;;8.17;4.33;;;;;;;;;;5074833;28;20271;-82
2022/11/06 03:43:52;;;;;;;8.63;4.20;;;;;;;;;;5083562;28;20294;-82
2022/11/06 03:46:23;;;;;;;8.30;4.20;;;;;;;;;;5060553;28;20757;-82
2022/11/06 03:48:54;;;;;;;12.10;3.97;;;;;;;;;;5054183;28;20210;-82
2022/11/06 03:51:23;;;;;;;9.60;4.13;;;;;;;;;;5054620;28;20290;-82
2022/11/06 03:53:51;;;;;;;8.77;4.30;;;;;;;;;;5062495;28;20239;-82
2022/11/06 03:56:22;;;;;;;8.63;4.00;;;;;;;;;;5054546;28;20231;-82
2022/11/06 03:58:49;;;;;;;7.67;3.13;;;;;;;;;;5054755;28;20299;-82
2022/11/06 04:01:18;;;;;;;7.77;3.10;;;;;;;;;;5054242;28;20311;-82
2022/11/06 04:03:47;;;;;;;8.43;4.20;;;;;;;;;;5070578;28;20251;-82
2022/11/06 04:06:18;;;;;;;8.93;3.13;;;;;;;;;;5068350;28;20272;-82
2022/11/06 04:14:20;;;;;;;5.73;3.27;;;;;;;;;;5084447;28;20550;-82
2022/11/06 04:16:49;;;;;;;3.93;2.33;;;;;;;;;;5094396;28;20294;-82
2022/11/06 04:19:18;;;;;;;7.20;2.20;;;;;;;;;;5092008;28;20252;-81
2022/11/06 04:21:57;;;;;;;7.57;2.80;;;;;;;;;;5087056;28;20278;-82
2022/11/06 04:27:22;;;;;;;5.40;2.30;;;;;;;;;;5060797;28;20202;-82
2022/11/06 04:29:53;;;;;;;8.20;2.60;;;;;;;;;;5067478;28;20269;-83
2022/11/06 04:32:24;;;;;;;5.67;2.73;;;;;;;;;;5073305;28;20289;-83
2022/11/06 04:34:56;;;;;;;4.60;2.40;;;;;;;;;;5073845;28;20237;-83
2022/11/06 04:37:28;;;;;;;7.23;2.60;;;;;;;;;;5069658;28;20222;-82
2022/11/06 04:40:00;;;;;;;4.73;2.53;;;;;;;;;;5071466;28;20280;-83
2022/11/06 04:42:30;;;;;;;8.47;2.37;;;;;;;;;;5072666;28;20273;-82
2022/11/06 04:45:01;;;;;;;6.97;2.80;;;;;;;;;;5089088;28;20281;-82
2022/11/06 04:47:29;;;;;;;7.27;2.80;;;;;;;;;;5066068;28;20238;-82
2022/11/06 04:49:58;;;;;;;8.10;2.93;;;;;;;;;;5075204;28;20638;-83
2022/11/06 04:52:28;;;;;;;12.33;2.97;;;;;;;;;;5072447;28;20199;-82
2022/11/06 04:54:56;;;;;;;10.83;3.40;;;;;;;;;;5071754;28;20222;-82
2022/11/06 04:57:23;;;;;;;5.73;3.23;;;;;;;;;;5055025;28;20235;-83
2022/11/06 04:59:51;;;;;;;10.70;3.70;;;;;;;;;;5063402;28;20223;-83
2022/11/06 05:02:18;;;;;;;7.30;3.33;;;;;;;;;;5059576;28;20632;-83
2022/11/06 05:04:45;;;;;;;10.77;3.70;;;;;;;;;;5053842;28;20290;-83
2022/11/06 05:07:13;;;;;;;7.53;3.67;;;;;;;;;;5069277;28;20234;-83
2022/11/06 05:09:42;;;;;;;7.67;3.30;;;;;;;;;;5071132;28;20758;-84
2022/11/06 05:12:09;;;;;;;10.03;3.27;;;;;;;;;;5076786;28;20198;-82
2022/11/06 05:14:37;;;;;;;8.70;3.37;;;;;;;;;;5093115;28;20233;-83
2022/11/06 05:17:04;;;;;;;9.80;3.37;;;;;;;;;;5093404;28;20202;-83
2022/11/06 05:19:31;;;;;;;8.10;3.60;;;;;;;;;;5084187;28;20234;-82
2022/11/06 05:24:44;;;;;;;7.23;3.07;;;;;;;;;;5072839;28;20194;-82
2022/11/06 05:27:12;;;;;;;8.00;2.97;;;;;;;;;;5072555;28;20289;-82
2022/11/06 05:29:39;;;;;;;6.60;2.80;;;;;;;;;;5062356;28;20258;-82
2022/11/06 05:32:08;;;;;;;5.13;2.73;;;;;;;;;;5057792;28;20674;-82
2022/11/06 05:34:35;;;;;;;5.47;2.40;;;;;;;;;;5052436;28;20254;-82
2022/11/06 05:37:03;;;;;;;6.00;2.43;;;;;;;;;;5053043;28;20636;-82
2022/11/06 05:39:30;;;;;;;8.60;2.53;;;;;;;;;;5057345;28;20208;-82
2022/11/06 05:41:58;;;;;;;6.60;2.70;;;;;;;;;;5052087;28;20647;-83
2022/11/06 05:44:27;;;;;;;10.70;2.47;;;;;;;;;;5052316;28;20199;-82
2022/11/06 05:46:54;;;;;;;7.33;2.70;;;;;;;;;;5067740;28;20670;-82
2022/11/06 05:49:21;;;;;;;6.87;2.80;;;;;;;;;;5057649;28;20260;-82
2022/11/06 05:51:48;;;;;;;5.10;2.43;;;;;;;;;;5058599;28;20241;-82
2022/11/06 05:54:16;;;;;;;7.03;2.87;;;;;;;;;;5063141;28;20282;-81
2022/11/06 05:56:43;;;;;;;8.80;2.57;;;;;;;;;;5073328;28;20233;-82
2022/11/06 05:59:11;;;;;;;6.47;2.60;;;;;;;;;;5072081;28;20242;-82
2022/11/06 06:01:39;;;;;;;3.67;2.17;;;;;;;;;;5065786;28;20223;-82
2022/11/06 06:04:06;;;;;;;7.03;2.43;;;;;;;;;;5062322;28;20634;-82
2022/11/06 06:06:34;;;;;;;7.70;2.27;;;;;;;;;;5052098;28;20299;-82
2022/11/06 06:09:01;;;;;;;7.77;2.40;;;;;;;;;;5052479;28;20223;-82
2022/11/06 06:11:28;;;;;;;6.37;2.13;;;;;;;;;;5052399;28;20231;-81
2022/11/06 06:13:55;;;;;;;8.30;2.50;;;;;;;;;;5069939;28;20366;-82
2022/11/06 06:16:24;;;;;;;6.00;2.07;;;;;;;;;;5069419;28;20701;-82
2022/11/06 06:18:51;;;;;;;7.73;2.30;;;;;;;;;;5071880;28;20241;-83
2022/11/06 06:21:18;;;;;;;4.57;2.07;;;;;;;;;;5065039;28;20229;-82
2022/11/06 06:23:46;;;;;;;4.90;2.40;;;;;;;;;;5070167;28;20575;-81
2022/11/06 06:26:13;;;;;;;4.47;2.40;;;;;;;;;;5061294;28;20196;-81
2022/11/06 06:28:40;;;;;;;6.33;2.30;;;;;;;;;;5060915;28;20224;-82
2022/11/06 06:31:08;;;;;;;4.53;2.43;;;;;;;;;;5077807;28;20236;-82
2022/11/06 06:33:37;;;;;;;5.93;2.57;;;;;;;;;;5058398;28;20211;-82
2022/11/06 06:36:04;;;;;;;4.10;2.00;;;;;;;;;;5056144;28;20290;-82
2022/11/06 06:38:32;;;;;;;4.57;1.90;;;;;;;;;;5066941;28;20227;-82
2022/11/06 06:41:02;;;;;;;3.83;2.03;;;;;;;;;;5075251;28;20274;-82
2022/11/06 06:43:29;;;;;;;4.07;2.10;;;;;;;;;;5076308;28;20199;-82
2022/11/06 06:45:58;;;;;;;5.93;2.30;;;;;;;;;;5075638;28;20281;-82
2022/11/06 06:48:25;;;;;;;4.63;2.13;;;;;;;;;;5075539;28;20290;-82
2022/11/06 06:50:57;;;;;;;5.57;2.10;;;;;;;;;;5074443;28;20226;-81
2022/11/06 06:53:24;;;;;;;6.70;2.30;;;;;;;;;;5074028;28;20650;-82
2022/11/06 06:55:51;;;;;;;5.93;2.30;;;;;;;;;;5082136;28;20219;-82
2022/11/06 06:58:18;;;;;;;6.10;2.30;;;;;;;;;;5075606;28;20230;-82
2022/11/06 07:00:46;;;;;;;7.87;2.33;;;;;;;;;;5081100;28;20301;-82
2022/11/06 07:03:15;;;;;;;6.00;2.47;;;;;;;;;;5089530;28;20202;-82
2022/11/06 07:05:42;;;;;;;6.13;2.27;;;;;;;;;;5076858;28;20227;-82
2022/11/06 07:08:10;;;;;;;13.10;2.90;;;;;;;;;;5070105;28;20305;-82
2022/11/06 07:10:38;;;;;;;8.80;2.67;;;;;;;;;;5055329;28;20730;-82
2022/11/06 07:13:05;;;;;;;6.07;2.43;;;;;;;;;;5055260;28;20291;-82
2022/11/06 07:15:33;;;;;;;12.50;2.93;;;;;;;;;;5055281;28;20548;-82
2022/11/06 07:18:02;;;;;;;6.33;2.47;;;;;;;;;;5054775;28;20235;-81
2022/11/06 07:20:30;;;;;;;8.83;2.87;;;;;;;;;;5056209;28;20223;-81
2022/11/06 07:22:57;;;;;;;10.97;2.93;;;;;;;;;;5075505;28;20215;-82
2022/11/06 07:25:26;;;;;;;8.53;3.37;;;;;;;;;;5057422;28;20199;-81
2022/11/06 07:27:54;;;;;;;8.17;3.20;;;;;;;;;;5055282;28;20287;-82
2022/11/06 07:30:21;;;;;;;6.83;2.97;;;;;;;;;;5064315;22;20615;-81
2022/11/06 07:32:50;;;;;;;6.90;3.17;;;;;;;;;;5017276;28;20331;-82
2022/11/06 07:35:17;;;;;;;7.43;3.30;;;;;;;;;;5033098;28;20205;-82
2022/11/06 07:37:44;;;;;;;10.33;3.37;;;;;;;;;;5032810;28;20231;-83
2022/11/06 07:40:13;;;;;;;9.83;3.37;;;;;;;;;;5034692;28;20707;-82
2022/11/06 07:42:42;;;;;;;7.93;3.23;;;;;;;;;;5034161;28;20738;-82
2022/11/06 07:45:09;;;;;;;9.20;3.20;;;;;;;;;;5034522;28;20720;-82
2022/11/06 07:47:37;;;;;;;9.17;3.10;;;;;;;;;;5028903;28;20687;-82
2022/11/06 07:50:04;;;;;;;6.67;3.27;;;;;;;;;;5034196;28;20236;-82
2022/11/06 07:52:32;;;;;;;8.37;3.50;;;;;;;;;;5034299;28;20275;-82
2022/11/06 07:54:59;;;;;;;8.77;3.57;;;;;;;;;;5033768;28;20204;-82
2022/11/06 07:57:27;;;;;;;11.97;3.67;;;;;;;;;;5034641;28;20232;-82
2022/11/06 07:59:55;;;;;;;8.20;3.30;;;;;;;;;;5026069;28;20284;-82
2022/11/06 08:02:23;;;;;;;10.47;3.70;;;;;;;;;;5015123;28;20308;-82
2022/11/06 08:04:50;;;;;;;7.90;3.47;;;;;;;;;;5017677;28;20260;-82
2022/11/06 08:07:17;;;;;;;9.37;3.57;;;;;;;;;;5014669;28;20681;-82
2022/11/06 08:09:44;;;;;;;6.70;3.67;;;;;;;;;;5014481;28;20295;-80
2022/11/06 08:12:13;;;;;;;8.73;3.73;;;;;;;;;;5013833;28;20197;-80
2022/11/06 08:14:40;;;;;;;9.17;3.70;;;;;;;;;;5018230;28;20228;-80
2022/11/06 08:17:09;;;;;;;7.70;3.77;;;;;;;;;;5033287;28;20613;-80
2022/11/06 08:19:36;;;;;;;7.93;3.73;;;;;;;;;;5015437;28;20704;-80
2022/11/06 08:22:03;;;;;;;7.70;3.70;;;;;;;;;;5023271;28;20261;-79
2022/11/06 08:24:31;;;;;;;6.97;3.70;;;;;;;;;;5032383;28;20232;-80
2022/11/06 08:26:58;;;;;;;9.20;3.77;;;;;;;;;;5033717;28;20289;-80
2022/11/06 08:29:25;;;;;;;5.37;3.30;;;;;;;;;;5032815;28;20621;-82
2022/11/06 08:31:52;;;;;;;6.07;3.50;;;;;;;;;;5019510;28;20232;-81
2022/11/06 08:34:21;;;;;;;6.57;3.67;;;;;;;;;;5013244;28;20205;-82
2022/11/06 08:36:50;;;;;;;7.27;3.73;;;;;;;;;;5014082;28;20284;-82
2022/11/06 08:39:20;;;;;;;8.27;3.63;;;;;;;;;;5021603;28;20211;-81
2022/11/06 08:41:47;;;;;;;6.27;3.10;;;;;;;;;;5018493;28;20278;-82
2022/11/06 08:44:15;;;;;;;5.37;3.13;;;;;;;;;;5033410;28;20239;-82
2022/11/06 08:46:42;;;;;;;6.90;3.03;;;;;;;;;;5026238;28;21707;-83
2022/11/06 08:49:10;;;;;;;5.27;3.00;;;;;;;;;;5006842;28;20238;-81
2022/11/06 08:51:39;;;;;;;6.43;3.30;;;;;;;;;;4993554;28;20285;-80
2022/11/06 08:54:06;;;;;;;5.37;3.03;;;;;;;;;;5018717;28;20679;-81
2022/11/06 08:56:33;;;;;;;6.13;2.97;;;;;;;;;;5022267;28;20228;-81
2022/11/06 08:59:01;;;;;;;8.30;3.10;;;;;;;;;;5019086;28;20284;-80
2022/11/06 09:01:28;;;;;;;5.10;3.20;;;;;;;;;;5022608;28;20220;-81
2022/11/06 09:03:55;;;;;;;9.03;3.30;;;;;;;;;;5015075;28;20240;-80
2022/11/06 09:06:22;;;;;;;5.17;2.77;;;;;;;;;;5024356;28;20204;-81
2022/11/06 09:08:51;;;;;;;7.10;3.20;;;;;;;;;;5019303;28;20263;-81
2022/11/06 09:11:20;;;;;;;6.27;3.07;;;;;;;;;;5028012;28;20543;-80
2022/11/06 09:13:47;;;;;;;7.33;3.23;;;;;;;;;;5013551;28;20213;-81
2022/11/06 09:16:14;;;;;;;5.80;3.00;;;;;;;;;;5013132;28;20205;-81
2022/11/06 09:18:42;;;;;;;4.83;2.80;;;;;;;;;;5013662;28;20738;-81
2022/11/06 09:21:09;;;;;;;5.50;3.10;;;;;;;;;;5019007;28;20305;-82
2022/11/06 09:23:36;;;;;;;5.87;3.10;;;;;;;;;;5031430;28;20197;-81
2022/11/06 09:26:05;;;;;;;8.23;2.90;;;;;;;;;;5024105;28;20283;-80
2022/11/06 09:28:32;;;;;;;6.87;2.73;;;;;;;;;;5022822;28;20224;-82
2022/11/06 09:30:59;;;;;;;7.93;3.13;;;;;;;;;;5015292;28;20268;-81
2022/11/06 09:33:28;;;;;;;6.20;3.03;;;;;;;;;;5017372;28;20205;-81
2022/11/06 09:35:56;;;;;;;4.13;2.87;;;;;;;;;;5009691;28;20205;-81
2022/11/06 09:38:23;;;;;;;6.77;2.90;;;;;;;;;;5007771;28;20228;-81
2022/11/06 09:40:52;;;;;;;4.80;3.00;;;;;;;;;;5021061;28;20294;-81
2022/11/06 09:43:26;;;;;;;5.63;2.70;;;;;;;;;;5010264;28;20226;-81
2022/11/06 09:45:54;;;;;;;5.67;2.50;;;;;;;;;;5019350;28;20288;-82
2022/11/06 09:48:25;;;;;;;6.70;2.80;;;;;;;;;;5007663;28;20214;-82
2022/11/06 09:50:57;;;;;;;5.83;2.70;;;;;;;;;;5013920;28;20240;-82
2022/11/06 09:53:27;;;;;;;6.47;2.70;;;;;;;;;;5007559;28;20642;-82
2022/11/06 09:55:55;;;;;;;6.57;3.00;;;;;;;;;;5013637;28;20563;-82
2022/11/06 09:58:25;;;;;;;5.10;2.77;;;;;;;;;;5013205;28;20680;-82
2022/11/06 10:00:55;;;;;;;9.20;2.90;;;;;;;;;;5016978;28;20201;-81
2022/11/06 10:03:27;;;;;;;4.53;2.83;;;;;;;;;;5011837;28;20687;-79
2022/11/06 10:05:54;;;;;;;5.13;3.53;;;;;;;;;;5019810;28;20283;-79
2022/11/06 10:08:22;;;;;;;4.17;2.97;;;;;;;;;;5029715;28;20292;-78
2022/11/06 10:10:54;;;;;;;5.07;2.60;;;;;;;;;;5023190;28;20276;-79
2022/11/06 10:13:36;;;;;;;4.83;3.17;;;;;;;;;;5019570;28;20229;-79
2022/11/06 10:16:10;;;;;;;6.20;3.40;;;;;;;;;;5017942;28;20283;-79
2022/11/06 10:18:44;;;;;;;5.80;3.30;;;;;;;;;;5014364;28;20207;-79
2022/11/06 10:21:12;;;;;;;6.07;3.37;;;;;;;;;;5021277;28;20239;-79
2022/11/06 10:23:44;;;;;;;4.27;2.10;;;;;;;;;;5021800;28;20287;-79
2022/11/06 10:26:14;;;;;;;2.60;2.10;;;;;;;;;;5001815;28;20291;-79
2022/11/06 10:28:48;;;;;;;3.87;2.33;;;;;;;;;;5015814;28;20225;-79
2022/11/06 10:31:21;;;;;;;4.50;2.90;;;;;;;;;;5017112;28;20593;-79
2022/11/06 10:33:55;;;;;;;4.47;3.43;;;;;;;;;;5014775;28;20343;-84
2022/11/06 10:36:31;;;;;;;3.53;2.40;;;;;;;;;;5019976;28;20228;-85
2022/11/06 10:38:59;;;;;;;3.87;2.77;;;;;;;;;;4999585;28;20209;-81
2022/11/06 10:41:28;;;;;;;3.83;2.30;;;;;;;;;;5016645;28;21023;-84
2022/11/06 10:44:01;;;;;;;2.90;2.13;;;;;;;;;;5016422;28;21072;-84
2022/11/06 10:46:32;;;;;;;3.60;2.40;;;;;;;;;;5013035;28;20206;-85
2022/11/06 10:49:00;;;;;;;3.03;1.80;;;;;;;;;;5025517;28;20251;-84
2022/11/06 10:51:33;;;;;;;2.30;1.70;;;;;;;;;;5011381;28;20205;-85
2022/11/06 10:54:05;;;;;;;3.77;2.10;;;;;;;;;;5011442;28;20205;-84
2022/11/06 10:56:46;;;;;;;3.17;2.10;;;;;;;;;;5012010;28;20260;-84
2022/11/06 10:59:13;;;;;;;2.20;2.00;;;;;;;;;;5011693;28;20666;-85
2022/11/06 11:01:42;;;;;;;3.33;1.90;;;;;;;;;;5017078;28;20248;-84
2022/11/06 11:04:09;;;;;;;2.63;2.03;;;;;;;;;;5029685;28;20208;-84
2022/11/06 11:06:39;;;;;;;4.53;1.93;;;;;;;;;;5012822;28;20193;-85
2022/11/06 11:09:26;;;;;;;2.87;1.83;;;;;;;;;;5011838;28;20306;-84
2022/11/06 11:11:53;;;;;;;2.70;2.23;;;;;;;;;;5023019;28;20231;-84
2022/11/06 11:14:23;;;;;;;3.67;2.07;;;;;;;;;;5032317;28;20371;-84
2022/11/06 11:16:52;;;;;;;2.93;2.17;;;;;;;;;;5021011;28;20262;-84
2022/11/06 11:19:24;;;;;;;3.10;2.80;;;;;;;;;;5035654;28;20204;-85
2022/11/06 11:21:56;;;;;;;3.13;2.47;;;;;;;;;;5035172;28;20256;-85
2022/11/06 11:24:24;;;;;;;4.07;2.70;;;;;;;;;;5035101;28;20232;-84
2022/11/06 11:26:52;;;;;;;3.90;2.13;;;;;;;;;;5035336;28;20626;-85
2022/11/06 11:29:23;;;;;;;2.97;2.10;;;;;;;;;;5034526;28;20244;-85
2022/11/06 11:31:51;;;;;;;2.90;2.27;;;;;;;;;;5029823;28;20260;-84
2022/11/06 11:34:22;;;;;;;2.90;2.37;;;;;;;;;;5014877;28;20681;-85
2022/11/06 11:36:51;;;;;;;2.43;1.70;;;;;;;;;;5014633;28;20201;-85
2022/11/06 11:39:20;;;;;;;3.63;2.10;;;;;;;;;;5015074;28;20200;-84
2022/11/06 11:41:47;;;;;;;3.77;2.00;;;;;;;;;;5018314;28;20271;-85
2022/11/06 11:44:16;;;;;;;2.97;2.10;;;;;;;;;;5015218;28;20735;-85
2022/11/06 11:46:46;;;;;;;3.30;1.70;;;;;;;;;;5022221;28;20620;-85
2022/11/06 11:49:26;;;;;;;3.03;2.10;;;;;;;;;;5015751;28;20209;-85
2022/11/06 11:51:53;;;;;;;3.10;1.90;;;;;;;;;;5031215;28;20219;-85
2022/11/06 11:54:22;;;;;;;4.03;1.90;;;;;;;;;;5020780;28;20554;-85
2022/11/06 11:56:50;;;;;;;4.10;2.33;;;;;;;;;;5034615;28;20739;-85
2022/11/06 11:59:19;;;;;;;3.73;2.10;;;;;;;;;;5026273;28;20239;-85
2022/11/06 12:01:47;;;;;;;4.53;1.97;;;;;;;;;;5014709;28;20205;-85
2022/11/06 12:04:20;;;;;;;3.60;1.63;;;;;;;;;;5014737;28;20213;-85
2022/11/06 12:06:53;;;;;;;3.37;1.43;;;;;;;;;;5015453;28;20205;-85
2022/11/06 12:09:21;;;;;;;5.35;2.28;;;;;;;;;;5018814;28;20655;-85
2022/11/06 12:11:49;;;;;;;5.43;2.70;;;;;;;;;;5015196;28;20209;-85
2022/11/06 12:14:32;;;;;;;7.40;2.90;;;;;;;;;;5020700;28;20209;-85
2022/11/06 12:17:05;;;;;;;4.27;2.83;;;;;;;;;;5020697;28;20236;-85
2022/11/06 12:19:33;;;;;;;7.97;2.97;;;;;;;;;;5026325;28;20665;-84
2022/11/06 12:22:07;;;;;;;7.63;2.97;;;;;;;;;;5027624;28;20216;-85
2022/11/06 12:24:38;;;;;;;7.13;2.20;;;;;;;;;;5031478;28;20195;-85
2022/11/06 12:27:09;;;;;;;7.67;2.60;;;;;;;;;;5019702;28;20746;-84
2022/11/06 12:29:39;;;;;;;7.23;2.43;;;;;;;;;;5032310;28;20255;-84
2022/11/06 12:32:09;;;;;;;6.13;2.00;;;;;;;;;;5014472;28;20213;-84
2022/11/06 12:34:39;;;;;;;5.33;1.90;;;;;;;;;;5014066;28;20288;-84
2022/11/06 12:37:18;;;;;;;7.10;2.20;;;;;;;;;;5014659;28;20283;-84
2022/11/06 12:39:50;;;;;;;4.30;1.97;;;;;;;;;;5014088;28;20201;-84
2022/11/06 12:42:18;;;;;;;8.13;2.60;;;;;;;;;;5027694;28;20286;-85
2022/11/06 12:44:47;;;;;;;6.67;2.30;;;;;;;;;;5033733;28;20254;-85
2022/11/06 12:47:20;;;;;;;5.63;2.20;;;;;;;;;;5033065;28;20207;-84
2022/11/06 12:50:02;;;;;;;6.13;3.40;;;;;;;;;;5014470;28;20201;-84
2022/11/06 12:52:39;;;;;;;3.20;2.23;;;;;;;;;;5013637;28;20307;-84
2022/11/06 12:55:14;;;;;;;5.60;2.07;;;;;;;;;;5031767;28;20352;-84
2022/11/06 12:57:46;;;;;;;3.17;1.40;;;;;;;;;;5033239;28;20199;-85
2022/11/06 13:00:17;;;;;;;2.97;1.57;;;;;;;;;;5033492;28;20236;-84
2022/11/06 13:02:59;;;;;;;5.57;2.00;;;;;;;;;;5033098;28;20727;-84
2022/11/06 13:05:30;;;;;;;5.40;1.90;;;;;;;;;;5017651;28;20201;-84
2022/11/06 13:08:02;;;;;;;7.25;2.00;;;;;;;;;;5027477;28;20745;-84
2022/11/06 13:10:41;;;;;;;9.00;2.23;;;;;;;;;;5033482;28;20260;-84
2022/11/06 13:13:17;;;;;;;4.38;1.70;;;;;;;;;;4993929;28;20329;-84
2022/11/06 13:15:48;;;;;;;6.33;1.83;;;;;;;;;;5021899;28;20259;-84
2022/11/06 13:18:18;;;;;;;5.97;2.07;;;;;;;;;;5023171;28;20212;-84
2022/11/06 13:20:49;;;;;;;8.63;2.40;;;;;;;;;;5015947;28;20205;-84
2022/11/06 13:23:20;;;;;;;7.28;2.35;;;;;;;;;;5017162;28;20315;-85
2022/11/06 13:25:50;;;;;;;9.23;2.15;;;;;;;;;;5032542;28;20561;-84
2022/11/06 13:28:29;;;;;;;6.73;2.30;;;;;;;;;;5001720;28;20235;-84
2022/11/06 13:30:58;;;;;;;4.57;1.90;;;;;;;;;;5032663;28;20204;-85
2022/11/06 13:33:27;;;;;;;4.63;1.37;;;;;;;;;;5016687;28;20205;-85
2022/11/06 13:35:54;;;;;;;5.20;2.10;;;;;;;;;;5011891;28;20186;-85
2022/11/06 13:38:26;;;;;;;3.85;1.30;;;;;;;;;;5012892;28;20208;-84
2022/11/06 13:40:55;;;;;;;6.95;2.00;;;;;;;;;;5018354;28;20270;-85
2022/11/06 13:43:26;;;;;;;6.70;1.80;;;;;;;;;;5012470;28;20213;-84
2022/11/06 13:45:57;;;;;;;7.65;1.77;;;;;;;;;;5027209;28;20215;-85
2022/11/06 13:48:30;;;;;;;10.20;2.20;;;;;;;;;;5015295;28;20846;-85
2022/11/06 13:50:59;;;;;;;7.00;1.80;;;;;;;;;;5012896;28;20197;-85
2022/11/06 13:53:32;;;;;;;7.05;2.00;;;;;;;;;;5012918;28;20205;-84
2022/11/06 13:56:08;;;;;;;8.68;1.88;;;;;;;;;;5026989;28;20291;-85
2022/11/06 13:58:44;;;;;;;6.57;1.80;;;;;;;;;;5031963;28;21025;-84
2022/11/06 14:01:18;;;;;;;6.15;1.50;;;;;;;;;;5013910;28;20685;-84
2022/11/06 14:03:56;;;;;;;7.25;2.13;;;;;;;;;;5012759;28;20248;-85
2022/11/06 14:06:24;;;;;;;6.80;1.65;;;;;;;;;;5032451;28;20266;-85
2022/11/06 14:08:54;;;;;;;6.47;2.33;;;;;;;;;;5022049;28;20197;-85
2022/11/06 14:11:26;;;;;;;6.50;2.25;;;;;;;;;;5025866;28;21616;-84
2022/11/06 14:13:58;;;;;;;7.55;1.98;;;;;;;;;;5018605;28;20677;-84
2022/11/06 14:16:26;;;;;;;10.80;2.45;;;;;;;;;;5013748;28;20984;-84
2022/11/06 14:19:01;;;;;;;7.55;2.05;;;;;;;;;;5032855;28;20234;-85
2022/11/06 14:21:42;;;;;;;7.60;2.03;;;;;;;;;;5024316;28;20262;-85
2022/11/06 14:24:17;;;;;;;5.72;2.00;;;;;;;;;;5030400;28;20260;-84
2022/11/06 14:26:45;;;;;;;12.55;2.05;;;;;;;;;;4993227;28;20202;-85
2022/11/06 14:29:31;;;;;;;8.40;1.90;;;;;;;;;;5007271;28;20314;-84
2022/11/06 14:31:59;;;;;;;7.25;2.20;;;;;;;;;;5029220;28;20662;-84
2022/11/06 14:34:28;;;;;;;9.15;2.40;;;;;;;;;;5012428;28;20197;-84
2022/11/06 14:36:55;;;;;;;8.13;2.58;;;;;;;;;;5012744;28;20299;-85
2022/11/06 14:39:37;;;;;;;12.10;2.50;;;;;;;;;;5028702;28;20204;-84
2022/11/06 14:42:06;;;;;;;6.72;1.63;;;;;;;;;;5028030;28;20200;-84
2022/11/06 14:44:36;;;;;;;10.52;2.58;;;;;;;;;;5031785;28;20606;-84
2022/11/06 14:47:06;;;;;;;7.97;2.20;;;;;;;;;;5032369;28;20212;-84
2022/11/06 14:49:39;;;;;;;8.05;2.50;;;;;;;;;;5034435;28;20254;-84
2022/11/06 14:52:08;;;;;;;7.57;1.88;;;;;;;;;;5016857;28;20205;-85
2022/11/06 14:54:39;;;;;;;7.53;2.15;;;;;;;;;;5020101;28;20197;-84
2022/11/06 14:57:08;;;;;;;8.38;2.28;;;;;;;;;;5027231;28;20208;-86
2022/11/06 14:59:36;;;;;;;11.00;1.83;;;;;;;;;;5015615;28;20209;-85
2022/11/06 15:02:11;;;;;;;6.35;1.60;;;;;;;;;;5015555;28;20204;-83
2022/11/06 15:04:43;;;;;;;8.43;2.30;;;;;;;;;;5017411;28;20220;-85
2022/11/06 15:07:11;;;;;;;8.70;1.90;;;;;;;;;;5021431;28;20208;-83
2022/11/06 15:09:46;;;;;;;9.20;2.20;;;;;;;;;;5014634;28;20335;-86